EZY556 EGBP-EGGD
Flight info
| Callsign | EZY556 |
|---|---|
| Flight time | 0h 13m |
| Altitude | 14000 |
| Route | EGBP/09 DCT EGGD |
| Aircraft | A20N/M-SDE2E3FGHIRWXY/LB1 |
Departure
| Time | 2026-05-08 13:34 |
|---|---|
| Airport | Cotswold Airport (EGBP) |
Arrival
| Time | 2026-05-08 13:47 |
|---|---|
| Airport | Bristol Airport (EGGD) |
| Time | Latitude | Longitude | Altitude | Speed | Heading |
|---|---|---|---|---|---|
| 2026-05-08 13:34 | 51.56180 | -2.20503 | 4995 ft | 250 kts | 208° |
| 2026-05-08 13:34 | 51.54639 | -2.21855 | 5001 ft | 250 kts | 208° |
| 2026-05-08 13:35 | 51.53136 | -2.23174 | 5001 ft | 244 kts | 208° |
| 2026-05-08 13:35 | 51.51721 | -2.24694 | 4998 ft | 248 kts | 226° |
| 2026-05-08 13:35 | 51.50881 | -2.27095 | 4998 ft | 251 kts | 255° |
| 2026-05-08 13:35 | 51.50789 | -2.29909 | 4990 ft | 255 kts | 270° |
| 2026-05-08 13:36 | 51.50858 | -2.32717 | 4990 ft | 245 kts | 270° |
| 2026-05-08 13:36 | 51.50928 | -2.35341 | 4983 ft | 231 kts | 270° |
| 2026-05-08 13:36 | 51.51001 | -2.37938 | 4993 ft | 235 kts | 270° |
| 2026-05-08 13:36 | 51.51072 | -2.40540 | 4996 ft | 232 kts | 270° |
| 2026-05-08 13:37 | 51.51145 | -2.43179 | 4993 ft | 233 kts | 270° |
| 2026-05-08 13:37 | 51.51216 | -2.45734 | 4997 ft | 233 kts | 270° |
| 2026-05-08 13:37 | 51.51287 | -2.48330 | 4993 ft | 233 kts | 270° |
| 2026-05-08 13:37 | 51.51364 | -2.50938 | 4992 ft | 233 kts | 270° |
| 2026-05-08 13:38 | 51.51442 | -2.53541 | 4989 ft | 234 kts | 272° |
| 2026-05-08 13:38 | 51.51347 | -2.56109 | 4998 ft | 231 kts | 257° |
| 2026-05-08 13:38 | 51.51259 | -2.58695 | 4995 ft | 234 kts | 270° |
| 2026-05-08 13:38 | 51.51331 | -2.61308 | 4993 ft | 234 kts | 270° |
| 2026-05-08 13:39 | 51.51404 | -2.63916 | 4990 ft | 234 kts | 270° |
| 2026-05-08 13:39 | 51.51478 | -2.66520 | 4996 ft | 233 kts | 270° |
| 2026-05-08 13:39 | 51.51551 | -2.69127 | 4997 ft | 234 kts | 270° |
| 2026-05-08 13:39 | 51.51626 | -2.71735 | 4990 ft | 234 kts | 270° |
| 2026-05-08 13:40 | 51.51697 | -2.74342 | 4997 ft | 235 kts | 270° |
| 2026-05-08 13:40 | 51.51766 | -2.76955 | 4992 ft | 234 kts | 270° |
| 2026-05-08 13:40 | 51.51833 | -2.79561 | 4989 ft | 234 kts | 270° |
| 2026-05-08 13:40 | 51.51901 | -2.82138 | 4983 ft | 234 kts | 270° |
| 2026-05-08 13:41 | 51.51893 | -2.84769 | 4985 ft | 231 kts | 256° |
| 2026-05-08 13:41 | 51.51212 | -2.87051 | 4989 ft | 228 kts | 231° |
| 2026-05-08 13:41 | 51.50232 | -2.89050 | 4860 ft | 229 kts | 230° |
| 2026-05-08 13:41 | 51.49252 | -2.91027 | 4588 ft | 228 kts | 230° |
| 2026-05-08 13:42 | 51.48277 | -2.93006 | 4490 ft | 226 kts | 230° |
| 2026-05-08 13:42 | 51.47275 | -2.94965 | 4482 ft | 227 kts | 221° |
| 2026-05-08 13:42 | 51.45912 | -2.96130 | 4485 ft | 224 kts | 190° |
| 2026-05-08 13:42 | 51.44368 | -2.96257 | 4315 ft | 219 kts | 180° |
| 2026-05-08 13:43 | 51.42872 | -2.96257 | 4009 ft | 211 kts | 180° |
| 2026-05-08 13:43 | 51.41433 | -2.96263 | 3759 ft | 201 kts | 180° |
| 2026-05-08 13:43 | 51.40079 | -2.96241 | 3474 ft | 189 kts | 174° |
| 2026-05-08 13:43 | 51.38934 | -2.95386 | 3164 ft | 183 kts | 135° |
| 2026-05-08 13:44 | 51.38258 | -2.93678 | 2874 ft | 183 kts | 120° |
| 2026-05-08 13:44 | 51.37679 | -2.91874 | 2550 ft | 181 kts | 116° |
| 2026-05-08 13:44 | 51.37512 | -2.89952 | 2289 ft | 176 kts | 84° |
| 2026-05-08 13:44 | 51.37724 | -2.88070 | 2080 ft | 159 kts | 84° |
| 2026-05-08 13:45 | 51.37796 | -2.86348 | 2046 ft | 161 kts | 92° |
| 2026-05-08 13:45 | 51.37804 | -2.84593 | 1875 ft | 155 kts | 90° |
| 2026-05-08 13:45 | 51.37851 | -2.82933 | 1750 ft | 142 kts | 89° |
| 2026-05-08 13:45 | 51.37913 | -2.81326 | 1620 ft | 147 kts | 91° |
| 2026-05-08 13:46 | 51.37956 | -2.79745 | 1432 ft | 139 kts | 89° |
| 2026-05-08 13:46 | 51.38029 | -2.78218 | 1280 ft | 137 kts | 89° |
| 2026-05-08 13:46 | 51.38077 | -2.76734 | 1070 ft | 133 kts | 88° |
| 2026-05-08 13:46 | 51.38141 | -2.75275 | 905 ft | 129 kts | 90° |
| 2026-05-08 13:47 | 51.38186 | -2.73858 | 716 ft | 128 kts | 88° |
| 2026-05-08 13:47 | 51.38242 | -2.72484 | 633 ft | 112 kts | 86° |
| 2026-05-08 13:47 | 51.38278 | -2.71637 | 626 ft | 58 kts | 87° |
| 2026-05-08 13:47 | 51.38300 | -2.71052 | 613 ft | 49 kts | 86° |
| 2026-05-08 13:48 | 51.38331 | -2.70780 | 615 ft | 15 kts | 46° |
| 2026-05-08 13:48 | 51.38444 | -2.70713 | 612 ft | 17 kts | 359° |
| 2026-05-08 13:48 | 51.38466 | -2.70859 | 613 ft | 16 kts | 270° |
| 2026-05-08 13:48 | 51.38457 | -2.71050 | 614 ft | 18 kts | 265° |
| 2026-05-08 13:49 | 51.38451 | -2.71281 | 614 ft | 24 kts | 268° |
| 2026-05-08 13:49 | 51.38441 | -2.71531 | 626 ft | 21 kts | 266° |
| 2026-05-08 13:49 | 51.38436 | -2.71688 | 621 ft | 12 kts | 267° |
| 2026-05-08 13:49 | 51.38435 | -2.71821 | 619 ft | 8 kts | 287° |
| 2026-05-08 13:50 | 51.38456 | -2.71853 | 621 ft | 1 kts | 339° |
| 2026-05-08 13:50 | 51.38472 | -2.71849 | 616 ft | 4 kts | 22° |
| 2026-05-08 13:50 | 51.38485 | -2.71831 | 621 ft | 5 kts | 51° |
| 2026-05-08 13:50 | 51.38489 | -2.71814 | 623 ft | 0 kts | 82° |
| 2026-05-08 13:51 | 51.38485 | -2.71774 | 623 ft | 6 kts | 90° |
| 2026-05-08 13:51 | 51.38485 | -2.71753 | 624 ft | 0 kts | 88° |